OEJN/JED METAR and TAF weather

Enter ICAO airport designator
Station Type Date Time Source
OEJN METAR 2020/07/06 19:00 UTC NOAA

OEJN 061900Z 31004KT CAVOK 34/13 Q1002 NOSIG


Station Type Date Time Source
OEJN Decoded METAR 2020/07/06 19:00 UTC NOAA

Jeddah King Abdul Aziz International Airport , Saudi Arabia (OEJN) 21-42N 039-11E 17M
Jul 06, 2020 - 03:00 PM EDT / 2020.07.06 1900 UTC
Wind: from the NW (310 degrees) at 5 MPH (4 KT):0
Visibility: greater than 7 mile(s):0
Temperature: 93 F (34 C)
Dew Point: 55 F (13 C)
Relative Humidity: 28%
Pressure (altimeter): 29.59 in. Hg (1002 hPa)
ob: OEJN 061900Z 31004KT CAVOK 34/13 Q1002 NOSIG
cycle: 19

Station Type Date Time Source
OEJN TAF 2020/07/06 18:06 UTC NOAA

TAF OEJN 061700Z 0618/0724 04006KT CAVOK
BECMG 0706/0708 32015KT
BECMG 0718/0720 VRB03KT

Example: see airport list